BIRK/RKV METAR and TAF weather

Enter ICAO airport designator
Station Type Date Time Source
BIRK METAR 2020/12/05 06:00 UTC NOAA

BIRK 050600Z 05005KT CAVOK M07/M14 Q1023


Station Type Date Time Source
BIRK Decoded METAR 2020/12/05 06:00 UTC NOAA

Reykjavik, Iceland (BIRK) 64-08N 021-54W 61M
Dec 05, 2020 - 01:00 AM EST / 2020.12.05 0600 UTC
Wind: from the NE (050 degrees) at 6 MPH (5 KT):0
Visibility: greater than 7 mile(s):0
Temperature: 19 F (-7 C)
Windchill: 10 F (-12 C):1
Dew Point: 6 F (-14 C)
Relative Humidity: 57%
Pressure (altimeter): 30.21 in. Hg (1023 hPa)
ob: BIRK 050600Z 05005KT CAVOK M07/M14 Q1023
cycle: 6

Station Type Date Time Source
BIRK TAF 2020/12/05 06:39 UTC NOAA

TAF BIRK 050437Z 0506/0606 10005KT 9999 FEW040 TXM01/0606Z TNM09/0507Z
BECMG 0510/0512 BKN025
TEMPO 0512/0603 4000 -SN BKN017 PROB40
TEMPO 0514/0602 1200 SN BKN010
BECMG 0515/0517 11015KT

Example: see airport list